Time;durP1;ratioP1;P1;durP2;ratioP2;P2;SDS_P1;SDS_P2;PMS_P1;PMS_P2;Temp;Humidity;BMP_temperature;BMP_pressure;BME280_temperature;BME280_humidity;BME280_pressure;Samples;Min_cycle;Max_cycle;Signal;HPM_P1;HPM_P2
2022/01/07 00:02:09;;;;;;;14.50;4.70;;;4.00;99.90;;;;;;5112934;27;20047;-79
2022/01/07 00:04:36;;;;;;;7.45;2.63;;;4.00;99.90;;;;;;5079171;27;20031;-79
2022/01/07 00:07:05;;;;;;;11.95;3.25;;;4.00;99.90;;;;;;5113262;27;20140;-79
2022/01/07 00:09:31;;;;;;;8.02;2.80;;;4.00;99.90;;;;;;5095823;27;20039;-79
2022/01/07 00:11:58;;;;;;;13.45;3.75;;;4.00;99.90;;;;;;5095341;27;20047;-79
2022/01/07 00:14:23;;;;;;;10.10;3.90;;;5.40;99.90;;;;;;5095269;27;20043;-79
2022/01/07 00:16:49;;;;;;;17.63;3.58;;;4.00;99.90;;;;;;5094520;27;20130;-79
2022/01/07 00:19:25;;;;;;;15.75;3.10;;;4.00;99.90;;;;;;5113091;27;20043;-79
2022/01/07 00:21:51;;;;;;;11.70;3.25;;;4.00;99.90;;;;;;5094657;27;20047;-79
2022/01/07 00:24:17;;;;;;;9.95;3.90;;;4.00;99.90;;;;;;5112742;27;20043;-79
2022/01/07 00:26:43;;;;;;;7.43;3.15;;;4.00;99.90;;;;;;5111807;27;20035;-79
2022/01/07 00:29:08;;;;;;;11.50;3.53;;;3.90;99.90;;;;;;5077889;27;20844;-79
2022/01/07 00:31:34;;;;;;;12.45;4.68;;;4.00;99.90;;;;;;5095029;27;20043;-79
2022/01/07 00:34:00;;;;;;;8.75;3.22;;;3.90;99.90;;;;;;5111156;27;20083;-79
2022/01/07 00:36:26;;;;;;;8.88;2.72;;;2.60;99.90;;;;;;5112387;27;20133;-79
2022/01/07 00:38:52;;;;;;;13.82;4.07;;;3.90;99.90;;;;;;5077399;27;20054;-79
2022/01/07 00:41:18;;;;;;;11.30;3.47;;;3.90;99.90;;;;;;5078928;27;20043;-79
2022/01/07 00:43:43;;;;;;;11.60;3.53;;;3.80;99.90;;;;;;5111630;27;20125;-79
2022/01/07 00:46:09;;;;;;;7.88;3.17;;;3.80;99.90;;;;;;5078371;27;20043;-80
2022/01/07 00:48:37;;;;;;;10.55;3.63;;;4.90;99.90;;;;;;5111679;27;20092;-79
2022/01/07 00:51:03;;;;;;;16.10;4.13;;;5.10;99.90;;;;;;5077369;27;20440;-79
2022/01/07 00:53:31;;;;;;;9.40;3.40;;;3.70;99.90;;;;;;5112036;27;20047;-79
2022/01/07 00:56:49;;;;;;;9.95;3.33;;;3.70;99.90;;;;;;5109735;27;20043;-80
2022/01/07 00:59:11;;;;;;;11.13;3.33;;;3.70;99.90;;;;;;5077910;27;20156;-78
2022/01/07 01:01:36;;;;;;;9.40;3.60;;;3.40;99.90;;;;;;5108936;27;20051;-77
2022/01/07 01:04:03;;;;;;;8.15;3.65;;;5.30;99.90;;;;;;5110921;27;20053;-78
2022/01/07 01:06:29;;;;;;;8.80;3.17;;;3.50;99.90;;;;;;5129514;27;20434;-78
2022/01/07 01:08:55;;;;;;;11.65;3.63;;;3.50;99.90;;;;;;5110207;27;20528;-78
2022/01/07 01:11:20;;;;;;;9.88;3.80;;;3.50;99.90;;;;;;5111292;27;20126;-78
2022/01/07 01:13:46;;;;;;;9.73;2.88;;;4.90;99.90;;;;;;5110291;27;20035;-78
2022/01/07 01:16:11;;;;;;;9.20;3.58;;;3.40;99.90;;;;;;5094257;27;20099;-79
2022/01/07 01:18:37;;;;;;;8.13;3.05;;;3.30;99.90;;;;;;5110123;27;20046;-79
2022/01/07 01:21:03;;;;;;;9.13;3.67;;;3.40;99.90;;;;;;5110720;28;20058;-79
2022/01/07 01:23:29;;;;;;;8.02;3.45;;;3.30;99.90;;;;;;5093579;28;20082;-79
2022/01/07 01:25:55;;;;;;;11.35;3.55;;;3.30;99.90;;;;;;5109919;28;20070;-79
2022/01/07 01:28:20;;;;;;;10.52;3.38;;;3.30;99.90;;;;;;5077286;28;20452;-78
2022/01/07 01:30:46;;;;;;;12.68;4.00;;;3.20;99.90;;;;;;5110005;28;20047;-79
2022/01/07 01:33:12;;;;;;;13.43;4.13;;;3.20;99.90;;;;;;5077285;28;20058;-79
2022/01/07 01:35:41;;;;;;;11.88;3.70;;;3.20;99.90;;;;;;5128564;28;20082;-79
2022/01/07 01:38:07;;;;;;;14.25;3.55;;;3.20;99.90;;;;;;5093681;28;20126;-79
2022/01/07 01:40:34;;;;;;;13.30;3.65;;;3.20;99.90;;;;;;5110817;28;20130;-79
2022/01/07 01:43:01;;;;;;;9.82;3.58;;;3.20;99.90;;;;;;5128487;28;20043;-79
2022/01/07 01:45:27;;;;;;;7.30;3.25;;;3.10;99.90;;;;;;5094229;28;20042;-79
2022/01/07 01:47:54;;;;;;;13.52;4.43;;;3.20;99.90;;;;;;5109505;28;20047;-79
2022/01/07 01:50:21;;;;;;;9.40;4.22;;;3.10;99.90;;;;;;5129261;28;20455;-79
2022/01/07 01:52:54;;;;;;;8.07;4.13;;;4.10;99.90;;;;;;5110117;28;20383;-79
2022/01/07 01:55:21;;;;;;;8.55;3.30;;;3.10;99.90;;;;;;5093737;28;20058;-79
2022/01/07 01:57:47;;;;;;;12.80;3.75;;;3.00;99.90;;;;;;5129280;28;20051;-79
2022/01/07 02:00:16;;;;;;;9.75;3.83;;;3.00;99.90;;;;;;5128253;28;20051;-79
2022/01/07 02:02:43;;;;;;;10.80;3.60;;;3.00;99.90;;;;;;5129754;28;20069;-79
2022/01/07 02:05:09;;;;;;;10.73;3.85;;;3.00;99.90;;;;;;5128211;28;20036;-79
2022/01/07 02:07:37;;;;;;;9.20;4.40;;;3.00;99.90;;;;;;5093686;28;20043;-79
2022/01/07 02:10:05;;;;;;;10.02;3.72;;;3.00;99.90;;;;;;5076145;28;20047;-79
2022/01/07 02:12:31;;;;;;;15.75;5.15;;;3.00;99.90;;;;;;5110248;28;20051;-79
2022/01/07 02:14:57;;;;;;;11.40;4.30;;;3.00;99.90;;;;;;5113931;27;20069;-80
2022/01/07 02:17:25;;;;;;;11.88;3.97;;;3.10;99.90;;;;;;5132269;27;20074;-79
2022/01/07 02:19:51;;;;;;;12.75;4.55;;;2.90;99.90;;;;;;5115124;27;20027;-79
2022/01/07 02:22:20;;;;;;;8.38;4.38;;;2.90;99.90;;;;;;5113313;27;20506;-79
2022/01/07 02:24:48;;;;;;;7.88;4.10;;;2.90;99.90;;;;;;5132954;27;20086;-79
2022/01/07 02:27:17;;;;;;;10.73;4.00;;;2.90;99.90;;;;;;5113155;27;20051;-79
2022/01/07 02:29:45;;;;;;;11.95;4.25;;;2.90;99.90;;;;;;5112671;27;20100;-79
2022/01/07 02:32:11;;;;;;;9.77;4.57;;;2.90;99.90;;;;;;5113482;27;20109;-79
2022/01/07 02:34:37;;;;;;;9.20;3.33;;;2.90;99.90;;;;;;5111347;27;20039;-79
2022/01/07 02:37:03;;;;;;;14.32;4.18;;;2.90;99.90;;;;;;5113530;27;20136;-79
2022/01/07 02:39:29;;;;;;;9.73;3.78;;;2.90;99.90;;;;;;5111331;27;20083;-79
2022/01/07 02:41:55;;;;;;;9.77;3.90;;;2.90;99.90;;;;;;5112903;27;20085;-79
2022/01/07 02:44:21;;;;;;;9.98;4.20;;;2.90;99.90;;;;;;5095176;27;20379;-79
2022/01/07 02:46:47;;;;;;;4.93;3.55;;;2.90;99.90;;;;;;5095213;27;20383;-79
2022/01/07 02:49:16;;;;;;;9.30;4.25;;;2.90;99.90;;;;;;5112927;27;20474;-79
2022/01/07 02:51:42;;;;;;;10.05;4.80;;;2.90;99.90;;;;;;5111228;27;20169;-79
2022/01/07 02:54:09;;;;;;;8.15;3.70;;;2.90;99.90;;;;;;5096326;27;20043;-79
2022/01/07 02:56:36;;;;;;;9.35;3.63;;;3.00;99.90;;;;;;5094028;27;20072;-79
2022/01/07 02:59:03;;;;;;;9.27;4.07;;;3.00;99.90;;;;;;5095094;27;20043;-79
2022/01/07 03:01:29;;;;;;;7.75;4.60;;;3.00;99.90;;;;;;5078221;27;20070;-79
2022/01/07 03:03:54;;;;;;;11.10;4.15;;;3.00;99.90;;;;;;5111818;27;20478;-79
2022/01/07 03:06:23;;;;;;;8.07;4.05;;;4.30;99.90;;;;;;5112129;27;20505;-79
2022/01/07 03:08:50;;;;;;;7.95;4.28;;;3.00;99.90;;;;;;5111327;27;20410;-79
2022/01/07 03:11:16;;;;;;;13.43;4.47;;;3.00;99.90;;;;;;5113141;27;20043;-79
2022/01/07 03:13:42;;;;;;;7.22;4.55;;;3.00;99.90;;;;;;5110942;27;20054;-79
2022/01/07 03:16:08;;;;;;;9.90;4.90;;;3.30;99.90;;;;;;5112351;27;20447;-79
2022/01/07 03:18:33;;;;;;;9.38;4.38;;;3.00;99.90;;;;;;5111205;27;20092;-79
2022/01/07 03:21:00;;;;;;;11.02;4.88;;;2.90;99.90;;;;;;5111597;27;20096;-79
2022/01/07 03:23:26;;;;;;;7.65;4.45;;;2.90;99.90;;;;;;5112437;27;20057;-79
2022/01/07 03:25:53;;;;;;;7.47;4.35;;;3.00;99.90;;;;;;5110565;27;20079;-79
2022/01/07 03:28:20;;;;;;;10.48;4.60;;;3.00;99.90;;;;;;5112312;27;20473;-79
2022/01/07 03:30:47;;;;;;;5.32;3.85;;;3.30;99.90;;;;;;5093455;27;20046;-79
2022/01/07 03:33:13;;;;;;;9.90;4.35;;;2.90;99.90;;;;;;5111980;27;20047;-80
2022/01/07 03:35:39;;;;;;;9.45;4.30;;;2.90;99.90;;;;;;5129449;27;20419;-79
2022/01/07 03:38:06;;;;;;;10.25;5.00;;;2.90;99.90;;;;;;5111144;27;20043;-79
2022/01/07 03:40:33;;;;;;;11.88;4.70;;;3.00;99.90;;;;;;5112207;27;20533;-79
2022/01/07 03:42:59;;;;;;;12.75;5.03;;;2.90;99.90;;;;;;5110095;27;20086;-79
2022/01/07 03:45:25;;;;;;;10.63;4.95;;;2.90;99.90;;;;;;5112119;27;20075;-79
2022/01/07 03:47:52;;;;;;;8.73;4.82;;;3.50;99.90;;;;;;5128348;27;20043;-79
2022/01/07 03:50:21;;;;;;;11.10;5.50;;;3.00;99.90;;;;;;5094850;27;20057;-79
2022/01/07 03:52:48;;;;;;;8.00;4.85;;;3.00;99.90;;;;;;5110508;27;20122;-79
2022/01/07 03:55:17;;;;;;;12.35;5.25;;;3.00;99.90;;;;;;5129615;27;20043;-79
2022/01/07 03:57:42;;;;;;;8.90;5.97;;;3.00;99.90;;;;;;5130199;27;20039;-79
2022/01/07 04:00:12;;;;;;;10.57;5.60;;;3.00;99.90;;;;;;5110269;27;20050;-79
2022/01/07 04:02:39;;;;;;;10.85;4.72;;;3.00;99.90;;;;;;5130435;27;20180;-79
2022/01/07 04:05:05;;;;;;;13.13;5.65;;;3.00;99.90;;;;;;5109914;27;20473;-79
2022/01/07 04:07:31;;;;;;;8.48;5.03;;;3.00;99.90;;;;;;5111348;27;20079;-79
2022/01/07 04:09:58;;;;;;;9.43;5.32;;;3.00;99.90;;;;;;5128915;27;20418;-79
2022/01/07 04:12:24;;;;;;;8.18;5.07;;;3.10;99.90;;;;;;5110327;27;20042;-79
2022/01/07 04:15:00;;;;;;;8.52;5.13;;;2.60;99.90;;;;;;5111028;27;20043;-79
2022/01/07 04:17:26;;;;;;;6.88;5.00;;;3.00;99.90;;;;;;5109313;27;20043;-79
2022/01/07 04:19:51;;;;;;;10.15;4.82;;;3.10;99.90;;;;;;5129757;27;20072;-79
2022/01/07 04:22:17;;;;;;;10.13;5.20;;;4.10;99.90;;;;;;5109707;27;20046;-79
2022/01/07 04:24:42;;;;;;;9.93;5.40;;;3.20;99.90;;;;;;5129486;27;20051;-80
2022/01/07 04:27:08;;;;;;;8.00;4.93;;;3.10;99.90;;;;;;5109912;27;20051;-79
2022/01/07 04:29:34;;;;;;;7.65;5.07;;;3.20;99.90;;;;;;5110243;27;20081;-79
2022/01/07 04:32:01;;;;;;;6.40;4.60;;;3.10;99.90;;;;;;5110769;27;20043;-79
2022/01/07 04:34:27;;;;;;;9.60;4.82;;;3.20;99.90;;;;;;5109562;27;20462;-79
2022/01/07 04:36:53;;;;;;;8.35;5.55;;;3.10;99.90;;;;;;5110841;27;20486;-79
2022/01/07 04:39:18;;;;;;;7.30;5.15;;;3.10;99.90;;;;;;5091718;27;20146;-79
2022/01/07 04:41:44;;;;;;;6.68;4.65;;;3.10;99.90;;;;;;5110872;27;20039;-79
2022/01/07 04:44:10;;;;;;;11.20;4.78;;;3.10;99.90;;;;;;5128230;27;20066;-79
2022/01/07 04:46:36;;;;;;;6.25;4.82;;;3.40;99.90;;;;;;5109628;27;20047;-79
2022/01/07 04:49:02;;;;;;;11.63;5.18;;;3.10;99.90;;;;;;5110410;27;20126;-79
2022/01/07 04:51:29;;;;;;;7.22;4.72;;;3.10;99.90;;;;;;5108753;27;20046;-79
2022/01/07 04:53:55;;;;;;;7.22;5.32;;;3.20;99.90;;;;;;5111558;27;20080;-79
2022/01/07 04:56:21;;;;;;;11.27;5.35;;;4.20;99.90;;;;;;5126867;27;20449;-78
2022/01/07 04:58:48;;;;;;;7.25;5.18;;;3.20;99.90;;;;;;5129233;27;20039;-78
2022/01/07 05:01:14;;;;;;;15.18;5.25;;;3.20;99.90;;;;;;5127765;27;20047;-78
2022/01/07 05:03:40;;;;;;;8.55;5.72;;;3.20;99.90;;;;;;5109818;27;20039;-78
2022/01/07 05:06:44;;;;;;;9.13;5.60;;;4.50;99.90;;;;;;5110396;27;20031;-79
2022/01/07 05:09:09;;;;;;;13.13;5.55;;;3.20;99.90;;;;;;5096981;27;20043;-78
2022/01/07 05:11:34;;;;;;;10.18;4.88;;;3.30;99.90;;;;;;5110318;27;20045;-79
2022/01/07 05:14:00;;;;;;;6.03;4.50;;;3.30;99.90;;;;;;5109179;27;20126;-79
2022/01/07 05:16:28;;;;;;;9.27;5.60;;;3.30;99.90;;;;;;5092661;28;20047;-79
2022/01/07 05:18:54;;;;;;;11.57;6.13;;;3.30;99.90;;;;;;5109930;27;20083;-79
2022/01/07 05:21:20;;;;;;;12.82;5.60;;;3.60;99.90;;;;;;5091510;28;20122;-78
2022/01/07 05:23:46;;;;;;;8.80;5.63;;;3.30;99.90;;;;;;5093530;28;20118;-79
2022/01/07 05:26:11;;;;;;;9.18;5.75;;;3.40;99.90;;;;;;5108115;28;20163;-79
2022/01/07 05:28:37;;;;;;;6.90;5.35;;;3.40;99.90;;;;;;5109929;28;20055;-79
2022/01/07 05:31:04;;;;;;;9.23;5.50;;;3.40;99.90;;;;;;5108622;28;20539;-79
2022/01/07 05:33:30;;;;;;;9.93;5.13;;;3.40;99.90;;;;;;5092615;28;20047;-79
2022/01/07 05:35:55;;;;;;;6.20;4.85;;;3.80;99.90;;;;;;5109994;28;20054;-79
2022/01/07 05:38:21;;;;;;;9.82;5.13;;;3.40;99.90;;;;;;5108374;28;20050;-79
2022/01/07 05:40:47;;;;;;;14.20;5.28;;;3.50;99.90;;;;;;5128760;28;20058;-79
2022/01/07 05:43:12;;;;;;;8.07;5.13;;;3.50;99.90;;;;;;5108430;28;20047;-79
2022/01/07 05:45:38;;;;;;;8.60;4.72;;;3.50;99.90;;;;;;5110102;28;20481;-79
2022/01/07 05:48:04;;;;;;;9.15;4.55;;;3.50;99.90;;;;;;5091976;27;20039;-78
2022/01/07 05:50:30;;;;;;;6.88;4.82;;;3.50;99.90;;;;;;5113510;27;20050;-78
2022/01/07 05:52:56;;;;;;;10.38;5.20;;;3.50;99.90;;;;;;5113476;27;20107;-78
2022/01/07 05:55:21;;;;;;;9.75;5.10;;;5.50;99.90;;;;;;5095585;27;20035;-77
2022/01/07 05:57:47;;;;;;;10.43;5.10;;;3.50;99.90;;;;;;5097310;27;20039;-79
2022/01/07 06:00:13;;;;;;;9.30;5.18;;;3.50;99.90;;;;;;5095146;27;20399;-79
2022/01/07 06:02:39;;;;;;;9.57;5.28;;;3.60;99.90;;;;;;5114024;27;20068;-79
2022/01/07 06:05:06;;;;;;;10.13;5.38;;;3.70;99.90;;;;;;5112342;27;20051;-79
2022/01/07 06:07:32;;;;;;;8.38;5.07;;;3.60;99.90;;;;;;5113207;27;20514;-80
2022/01/07 06:09:57;;;;;;;8.00;5.00;;;3.60;99.90;;;;;;5096063;27;20035;-79
2022/01/07 06:12:23;;;;;;;8.73;5.07;;;3.60;99.90;;;;;;5131036;27;20046;-79
2022/01/07 06:14:49;;;;;;;12.55;5.40;;;3.70;99.90;;;;;;5113820;27;20459;-79
2022/01/07 06:17:14;;;;;;;6.38;4.72;;;3.70;99.90;;;;;;5094623;27;20047;-79
2022/01/07 06:19:40;;;;;;;11.23;5.28;;;3.60;99.90;;;;;;5096965;27;20038;-79
2022/01/07 06:22:06;;;;;;;7.93;5.45;;;3.60;99.90;;;;;;5111761;27;20449;-79
2022/01/07 06:24:32;;;;;;;8.60;5.20;;;3.60;99.90;;;;;;5096149;27;20092;-80
2022/01/07 06:26:58;;;;;;;16.25;5.18;;;3.90;99.90;;;;;;5112259;27;20148;-79
2022/01/07 06:29:24;;;;;;;12.43;4.88;;;3.60;99.90;;;;;;5130943;27;20050;-81
2022/01/07 06:31:50;;;;;;;7.00;5.40;;;3.70;99.90;;;;;;5132053;27;20047;-79
2022/01/07 06:34:18;;;;;;;7.53;5.43;;;3.70;99.90;;;;;;5130142;27;20417;-80
2022/01/07 06:36:44;;;;;;;8.10;6.18;;;3.60;99.90;;;;;;5132334;27;20047;-80
2022/01/07 06:39:10;;;;;;;10.40;5.30;;;3.70;99.90;;;;;;5111930;27;20043;-80
2022/01/07 06:41:36;;;;;;;14.05;5.72;;;4.20;99.90;;;;;;5096532;27;20062;-80
2022/01/07 06:44:02;;;;;;;7.97;5.00;;;3.60;99.90;;;;;;5095141;27;20259;-80
2022/01/07 06:46:27;;;;;;;12.02;4.72;;;3.60;99.90;;;;;;5095221;27;20043;-78
2022/01/07 06:48:53;;;;;;;10.02;5.25;;;5.10;99.90;;;;;;5096393;27;20054;-79
2022/01/07 06:51:18;;;;;;;7.68;5.60;;;3.60;99.90;;;;;;5094367;27;20506;-79
2022/01/07 06:53:44;;;;;;;9.98;5.63;;;3.70;99.90;;;;;;5113202;27;20043;-79
2022/01/07 06:56:10;;;;;;;6.82;5.07;;;3.70;99.90;;;;;;5111182;27;20445;-79
2022/01/07 06:58:36;;;;;;;7.45;4.40;;;3.70;99.90;;;;;;5112385;27;20047;-79
2022/01/07 07:01:02;;;;;;;7.20;5.18;;;3.70;99.90;;;;;;5111366;27;20047;-79
2022/01/07 07:03:28;;;;;;;8.63;4.90;;;3.70;99.90;;;;;;5112301;27;20599;-79
2022/01/07 07:05:54;;;;;;;6.93;4.85;;;3.70;99.90;;;;;;5095375;27;20079;-79
2022/01/07 07:08:19;;;;;;;7.25;4.72;;;3.70;99.90;;;;;;5110356;27;20075;-80
2022/01/07 07:10:45;;;;;;;7.25;4.82;;;3.70;99.90;;;;;;5095770;27;20092;-80
2022/01/07 07:13:11;;;;;;;8.85;5.43;;;3.70;99.90;;;;;;5110628;27;20254;-80
2022/01/07 07:15:36;;;;;;;6.45;4.55;;;3.70;99.90;;;;;;5112837;27;20050;-80
2022/01/07 07:18:02;;;;;;;7.22;5.25;;;3.80;99.90;;;;;;5111277;27;20448;-80
2022/01/07 07:20:28;;;;;;;8.63;5.10;;;3.70;99.90;;;;;;5111600;27;20580;-79
2022/01/07 07:22:54;;;;;;;9.18;5.40;;;3.80;99.90;;;;;;5112467;27;20087;-79
2022/01/07 07:25:22;;;;;;;8.63;5.35;;;3.70;99.90;;;;;;5129289;27;20148;-80
2022/01/07 07:27:48;;;;;;;9.90;5.70;;;3.80;99.90;;;;;;5130804;27;20054;-80
2022/01/07 07:30:14;;;;;;;11.00;5.80;;;3.80;99.90;;;;;;5093255;27;20055;-80
2022/01/07 07:32:40;;;;;;;7.85;5.95;;;3.80;99.90;;;;;;5112677;27;20046;-80
2022/01/07 07:37:44;;;;;;;9.63;6.35;;;3.90;99.90;;;;;;5111317;27;20471;-79
2022/01/07 07:40:10;;;;;;;13.32;6.22;;;5.50;99.90;;;;;;5112124;27;20096;-80
2022/01/07 07:42:36;;;;;;;8.40;5.78;;;3.90;99.90;;;;;;5109874;27;20414;-80
2022/01/07 07:45:02;;;;;;;14.95;6.65;;;3.90;99.90;;;;;;5112091;27;20061;-80
2022/01/07 07:47:28;;;;;;;12.90;6.65;;;3.90;99.90;;;;;;5128795;27;20032;-80
2022/01/07 07:49:54;;;;;;;9.77;5.93;;;3.90;99.90;;;;;;5094538;27;20047;-79
2022/01/07 07:52:19;;;;;;;9.98;7.05;;;4.00;99.90;;;;;;5076858;27;20066;-80
2022/01/07 07:54:45;;;;;;;14.02;6.85;;;5.20;99.90;;;;;;5111104;27;20054;-79
2022/01/07 07:57:11;;;;;;;9.85;7.28;;;4.00;99.90;;;;;;5111419;27;20043;-79
2022/01/07 07:59:36;;;;;;;10.93;6.50;;;4.00;99.90;;;;;;5110098;27;20039;-80
2022/01/07 08:02:02;;;;;;;11.60;7.78;;;4.00;99.90;;;;;;5094728;27;20051;-80
2022/01/07 08:04:30;;;;;;;11.40;7.25;;;4.10;99.90;;;;;;5128413;27;20368;-80
2022/01/07 08:06:55;;;;;;;12.20;7.45;;;4.10;99.90;;;;;;5129700;27;20050;-80
2022/01/07 08:09:23;;;;;;;12.13;7.38;;;4.10;99.90;;;;;;5110203;27;20543;-81
2022/01/07 08:11:53;;;;;;;13.98;8.07;;;4.10;99.90;;;;;;5109708;27;20051;-81
2022/01/07 08:17:06;;;;;;;14.75;6.85;;;4.20;99.90;;;;;;5109000;27;20051;-80
2022/01/07 08:19:32;;;;;;;15.50;8.10;;;4.20;99.90;;;;;;5094567;27;20046;-84
2022/01/07 08:21:58;;;;;;;21.05;8.35;;;4.30;99.90;;;;;;5109618;27;20039;-80
2022/01/07 08:24:24;;;;;;;13.00;7.90;;;4.20;99.90;;;;;;5111064;27;20534;-83
2022/01/07 08:26:50;;;;;;;12.90;7.93;;;4.30;99.90;;;;;;5092789;27;20046;-82
2022/01/07 08:29:16;;;;;;;18.02;7.65;;;4.70;99.90;;;;;;5076738;27;20039;-83
2022/01/07 08:36:58;;;;;;;12.98;8.25;;;6.00;99.90;;;;;;5090573;27;20456;-82
2022/01/07 08:39:25;;;;;;;13.75;8.52;;;4.40;99.90;;;;;;5109653;27;20130;-81
2022/01/07 08:41:51;;;;;;;16.02;9.13;;;4.50;99.90;;;;;;5110462;27;20443;-83
2022/01/07 08:44:17;;;;;;;15.82;8.60;;;4.50;99.90;;;;;;5093661;27;20040;-82
2022/01/07 08:46:43;;;;;;;14.38;9.20;;;4.50;99.90;;;;;;5092037;27;20363;-82
2022/01/07 08:49:09;;;;;;;24.63;9.60;;;4.50;99.90;;;;;;5094134;27;20475;-85
2022/01/07 08:51:35;;;;;;;23.05;9.80;;;4.50;99.90;;;;;;5108819;27;20039;-83
2022/01/07 08:54:01;;;;;;;16.65;8.02;;;5.10;99.90;;;;;;5129198;27;20039;-83
2022/01/07 08:56:26;;;;;;;17.48;9.18;;;4.60;99.90;;;;;;5109385;27;20043;-83
2022/01/07 08:58:54;;;;;;;17.35;8.90;;;4.60;99.90;;;;;;5092659;27;20383;-83
2022/01/07 09:01:22;;;;;;;19.95;9.07;;;4.70;99.90;;;;;;5128980;27;20045;-83
2022/01/07 09:03:47;;;;;;;15.68;8.68;;;4.70;99.90;;;;;;5127365;27;20047;-82
2022/01/07 09:06:15;;;;;;;12.68;8.77;;;4.70;99.90;;;;;;5129259;27;20049;-84
2022/01/07 09:08:41;;;;;;;13.30;7.35;;;6.40;99.90;;;;;;5127073;27;20043;-83
2022/01/07 09:11:07;;;;;;;18.35;9.77;;;4.80;99.90;;;;;;5129156;27;20049;-82
2022/01/07 09:13:33;;;;;;;20.75;8.95;;;4.80;99.90;;;;;;5127744;27;20118;-80
2022/01/07 09:15:59;;;;;;;14.88;8.65;;;5.40;99.90;;;;;;5128323;27;20130;-82
2022/01/07 09:18:25;;;;;;;16.20;8.80;;;6.20;99.90;;;;;;5109953;28;20058;-81
2022/01/07 09:20:51;;;;;;;26.75;9.60;;;6.80;99.90;;;;;;5109078;27;20058;-81
2022/01/07 09:23:17;;;;;;;21.52;9.63;;;4.90;99.90;;;;;;5110161;27;20047;-83
2022/01/07 09:25:43;;;;;;;17.63;8.63;;;5.80;99.90;;;;;;5091578;28;20042;-82
2022/01/07 09:28:10;;;;;;;23.15;10.27;;;5.00;99.90;;;;;;5128139;28;20162;-82
2022/01/07 09:30:37;;;;;;;17.88;9.27;;;5.00;99.90;;;;;;5127446;28;20499;-82
2022/01/07 09:33:03;;;;;;;15.82;8.60;;;5.00;99.90;;;;;;5109544;28;20040;-82
2022/01/07 09:35:29;;;;;;;19.92;9.13;;;6.30;99.90;;;;;;5128162;28;20054;-82
2022/01/07 09:37:55;;;;;;;20.55;10.02;;;5.10;99.90;;;;;;5127074;28;20044;-82
2022/01/07 09:40:21;;;;;;;20.50;10.38;;;5.10;99.90;;;;;;5110113;28;20055;-83
2022/01/07 09:43:05;;;;;;;18.20;9.18;;;5.10;99.90;;;;;;5126892;28;20050;-82
2022/01/07 09:45:32;;;;;;;21.83;9.50;;;5.10;99.90;;;;;;5128512;28;20049;-84
2022/01/07 09:47:59;;;;;;;21.05;9.32;;;5.10;99.90;;;;;;5091905;28;20223;-82
2022/01/07 09:50:27;;;;;;;15.13;9.45;;;5.20;99.90;;;;;;5127256;28;20046;-83
2022/01/07 09:52:52;;;;;;;22.52;10.02;;;5.20;99.90;;;;;;5128735;28;20043;-84
2022/01/07 09:55:19;;;;;;;19.10;10.50;;;5.20;99.90;;;;;;5107967;28;20049;-82
2022/01/07 09:57:45;;;;;;;25.75;10.43;;;5.60;99.90;;;;;;5110696;28;20466;-85
2022/01/07 10:00:12;;;;;;;21.88;8.68;;;5.20;99.90;;;;;;5108146;28;20107;-84
2022/01/07 10:02:38;;;;;;;21.25;9.18;;;5.10;99.90;;;;;;5110097;28;20390;-84
2022/01/07 10:05:17;;;;;;;23.50;8.75;;;5.30;99.90;;;;;;5109312;28;20043;-83
2022/01/07 10:07:46;;;;;;;25.25;8.98;;;5.10;99.90;;;;;;5126987;28;20471;-82
2022/01/07 10:10:17;;;;;;;22.15;8.48;;;5.10;99.90;;;;;;5093558;27;20035;-82
2022/01/07 10:12:56;;;;;;;21.58;8.05;;;5.10;99.90;;;;;;5108326;28;20047;-82
2022/01/07 10:15:27;;;;;;;15.32;7.53;;;5.10;99.90;;;;;;5093053;28;20046;-83
2022/01/07 10:18:09;;;;;;;19.88;6.82;;;5.10;99.90;;;;;;5109750;28;20047;-83
2022/01/07 10:20:46;;;;;;;14.35;7.72;;;5.10;99.90;;;;;;5127036;28;20097;-83
2022/01/07 10:23:13;;;;;;;8.85;4.90;;;5.70;99.90;;;;;;5110133;28;20047;-82
2022/01/07 10:25:51;;;;;;;9.82;4.10;;;5.10;99.90;;;;;;5126594;28;20039;-82
2022/01/07 10:28:20;;;;;;;5.75;2.20;;;5.10;99.90;;;;;;5109498;28;20051;-82
2022/01/07 10:30:50;;;;;;;4.70;1.35;;;5.20;99.90;;;;;;5108090;28;20122;-82
2022/01/07 10:33:22;;;;;;;1.70;1.15;;;5.10;99.90;;;;;;5108118;27;20130;-82
2022/01/07 10:35:51;;;;;;;4.57;1.25;;;5.00;99.90;;;;;;5095303;27;20526;-83
2022/01/07 10:38:21;;;;;;;3.53;1.00;;;4.90;99.90;;;;;;5111583;27;20551;-83
2022/01/07 10:40:48;;;;;;;2.25;1.00;;;4.90;99.90;;;;;;5095987;27;20047;-83
2022/01/07 10:43:14;;;;;;;7.68;1.25;;;4.90;99.90;;;;;;5128802;27;20413;-83
2022/01/07 10:45:55;;;;;;;2.30;1.38;;;6.80;99.90;;;;;;5131208;27;20610;-81
2022/01/07 10:48:42;;;;;;;1.92;1.20;;;5.00;99.90;;;;;;5129632;27;20398;-80
2022/01/07 10:51:14;;;;;;;2.60;1.42;;;5.10;99.90;;;;;;5109437;27;20059;-85
2022/01/07 10:53:40;;;;;;;7.32;1.77;;;6.80;99.90;;;;;;5095541;27;20043;-86
2022/01/07 10:56:12;;;;;;;5.70;1.55;;;5.30;99.90;;;;;;5111516;27;20047;-84
2022/01/07 10:58:47;;;;;;;4.25;1.40;;;5.30;99.90;;;;;;5111160;27;20079;-86
2022/01/07 11:01:19;;;;;;;2.70;0.90;;;5.30;99.90;;;;;;5130088;27;20047;-87
2022/01/07 11:04:38;;;;;;;3.25;0.80;;;5.30;99.90;;;;;;5107628;27;20452;-86
2022/01/07 11:07:13;;;;;;;6.57;0.90;;;4.50;99.90;;;;;;5092019;27;20078;-86
2022/01/07 11:09:39;;;;;;;3.60;1.10;;;5.70;99.90;;;;;;5076642;27;20074;-84
2022/01/07 11:12:06;;;;;;;5.88;1.02;;;7.30;99.90;;;;;;5110352;27;20485;-88
2022/01/07 11:14:35;;;;;;;5.35;1.20;;;5.50;99.90;;;;;;5077327;27;20031;-89
2022/01/07 11:17:06;;;;;;;2.63;0.95;;;5.50;99.90;;;;;;5094207;27;20574;-85
2022/01/07 11:19:42;;;;;;;4.03;1.50;;;6.90;99.90;;;;;;5095282;27;20035;-87
2022/01/07 11:22:13;;;;;;;2.88;1.23;;;5.50;99.90;;;;;;5092853;27;20050;-87
2022/01/07 11:24:45;;;;;;;5.20;1.40;;;5.40;99.90;;;;;;5112573;27;20042;-87
2022/01/07 11:27:16;;;;;;;5.15;1.02;;;5.40;99.90;;;;;;5111127;27;20090;-83
2022/01/07 11:30:03;;;;;;;8.90;1.27;;;5.40;99.90;;;;;;5129860;27;20099;-85
2022/01/07 11:32:36;;;;;;;3.05;1.13;;;5.40;99.90;;;;;;5112102;27;20065;-85
2022/01/07 11:35:17;;;;;;;3.75;1.20;;;5.50;99.90;;;;;;5093152;27;20049;-85
2022/01/07 11:37:43;;;;;;;2.83;1.67;;;5.50;99.90;;;;;;5095383;27;20051;-87
2022/01/07 11:40:25;;;;;;;6.68;2.35;;;5.60;99.90;;;;;;5093839;27;20129;-84
2022/01/07 11:42:51;;;;;;;6.85;1.88;;;5.70;99.90;;;;;;5114504;27;20046;-85
2022/01/07 11:45:30;;;;;;;10.48;2.30;;;5.80;99.90;;;;;;5111120;27;20379;-85
2022/01/07 11:48:14;;;;;;;4.05;2.25;;;5.80;99.90;;;;;;5110124;27;20517;-85
2022/01/07 11:50:55;;;;;;;5.38;2.85;;;5.90;99.90;;;;;;5111124;27;20043;-85
2022/01/07 11:53:21;;;;;;;5.25;2.92;;;5.90;99.90;;;;;;5111533;27;20129;-85
2022/01/07 11:55:47;;;;;;;5.55;2.80;;;6.00;99.90;;;;;;5109864;27;20039;-85
2022/01/07 11:58:14;;;;;;;9.90;3.33;;;6.00;99.90;;;;;;5094265;27;20932;-85
2022/01/07 12:00:58;;;;;;;9.52;3.47;;;6.00;99.90;;;;;;5127302;27;20097;-85
2022/01/07 12:03:43;;;;;;;10.30;2.97;;;6.00;99.90;;;;;;5110368;27;20080;-87
2022/01/07 12:07:06;;;;;;;9.15;3.80;;;6.10;99.90;;;;;;5092305;27;20065;-85
2022/01/07 12:09:38;;;;;;;8.90;3.15;;;6.10;99.90;;;;;;5068787;28;20052;-88
2022/01/07 12:12:12;;;;;;;7.32;3.17;;;7.50;99.90;;;;;;5036556;28;20066;-85
2022/01/07 12:14:40;;;;;;;7.47;3.05;;;6.20;99.90;;;;;;5084439;28;20477;-85
2022/01/07 12:17:36;;;;;;;6.75;2.67;;;7.90;99.90;;;;;;5068828;28;20088;-86
2022/01/07 12:20:50;;;;;;;9.43;3.30;;;6.00;99.90;;;;;;5050708;28;20044;-84
2022/01/07 12:23:22;;;;;;;16.52;4.03;;;6.40;99.90;;;;;;5007674;28;20083;-86
2022/01/07 12:25:50;;;;;;;6.97;2.97;;;6.50;99.90;;;;;;5063938;28;20052;-86
2022/01/07 12:28:16;;;;;;;9.27;4.28;;;6.60;99.90;;;;;;5049169;28;20074;-85
2022/01/07 12:30:43;;;;;;;11.10;4.03;;;6.60;99.90;;;;;;5066400;28;20090;-85
2022/01/07 12:33:10;;;;;;;9.10;4.22;;;7.30;99.90;;;;;;5066691;28;20522;-83
2022/01/07 12:35:37;;;;;;;7.80;4.82;;;6.70;99.90;;;;;;5084745;28;20572;-82
2022/01/07 12:38:13;;;;;;;9.93;3.47;;;6.80;99.90;;;;;;5085831;28;20059;-85
2022/01/07 12:40:39;;;;;;;7.63;4.03;;;6.90;99.90;;;;;;5050515;28;20048;-86
2022/01/07 12:43:04;;;;;;;11.73;3.83;;;6.90;99.90;;;;;;5051776;28;20085;-85
2022/01/07 12:45:31;;;;;;;6.65;3.40;;;7.90;99.90;;;;;;5067829;28;20040;-86
2022/01/07 12:47:57;;;;;;;7.00;3.30;;;7.60;99.90;;;;;;5051270;28;20051;-85
2022/01/07 12:50:28;;;;;;;8.27;3.55;;;7.20;99.90;;;;;;5051661;28;20044;-86
2022/01/07 12:52:54;;;;;;;6.65;3.05;;;8.50;99.90;;;;;;5034973;28;20044;-84
2022/01/07 12:55:22;;;;;;;5.93;2.58;;;6.70;99.90;;;;;;5052312;28;20126;-86
2022/01/07 12:58:03;;;;;;;5.93;2.30;;;7.50;99.90;;;;;;5050042;28;20179;-85
2022/01/07 13:00:34;;;;;;;7.28;2.38;;;6.90;99.90;;;;;;5085569;28;20059;-85
2022/01/07 13:03:05;;;;;;;5.75;2.15;;;6.70;99.90;;;;;;5086706;28;20040;-85
2022/01/07 13:05:40;;;;;;;4.93;1.77;;;6.50;99.90;;;;;;5055440;28;20044;-84
2022/01/07 13:08:11;;;;;;;5.90;2.25;;;6.40;99.90;;;;;;5093558;28;20048;-84
2022/01/07 13:10:39;;;;;;;5.38;2.13;;;7.80;99.90;;;;;;5054454;28;20047;-85